Time;durP1;ratioP1;P1;durP2;ratioP2;P2;SDS_P1;SDS_P2;PMS_P1;PMS_P2;Temp;Humidity;BMP_temperature;BMP_pressure;BME280_temperature;BME280_humidity;BME280_pressure;Samples;Min_cycle;Max_cycle;Signal;HPM_P1;HPM_P2
2022/03/08 00:01:56;;;;;;;3.97;2.00;;;-1.60;99.90;;;;;;5044099;28;20671;-68
2022/03/08 00:04:24;;;;;;;3.90;1.95;;;-1.50;99.90;;;;;;5047217;28;20800;-68
2022/03/08 00:06:49;;;;;;;6.10;2.25;;;-1.50;99.90;;;;;;5047062;28;20432;-68
2022/03/08 00:09:15;;;;;;;5.43;2.53;;;-1.60;99.90;;;;;;5046016;28;20040;-68
2022/03/08 00:11:41;;;;;;;9.45;3.00;;;-1.70;99.90;;;;;;5046300;28;20556;-68
2022/03/08 00:14:06;;;;;;;5.47;2.03;;;-1.80;99.90;;;;;;5043848;28;20025;-68
2022/03/08 00:16:32;;;;;;;4.80;2.25;;;-1.80;99.90;;;;;;5044831;28;20112;-68
2022/03/08 00:18:58;;;;;;;3.17;1.67;;;-1.70;99.90;;;;;;5041642;28;20429;-68
2022/03/08 00:21:23;;;;;;;7.22;2.08;;;-1.70;99.90;;;;;;5054921;28;20560;-68
2022/03/08 00:23:49;;;;;;;2.30;1.58;;;-1.70;99.90;;;;;;5045468;28;20052;-68
2022/03/08 00:26:15;;;;;;;4.20;1.92;;;-1.70;99.90;;;;;;5048815;28;20436;-68
2022/03/08 00:28:41;;;;;;;4.90;1.88;;;-1.80;99.90;;;;;;5044252;28;20025;-68
2022/03/08 00:31:07;;;;;;;6.07;1.98;;;-1.90;99.90;;;;;;5043934;28;20029;-67
2022/03/08 00:33:33;;;;;;;3.95;2.03;;;-2.00;99.90;;;;;;5053913;28;20032;-67
2022/03/08 00:35:59;;;;;;;3.92;1.92;;;-2.10;99.90;;;;;;5047879;28;20033;-68
2022/03/08 00:38:27;;;;;;;3.85;1.98;;;-2.00;99.90;;;;;;5048358;28;20049;-68
2022/03/08 00:40:53;;;;;;;4.13;2.05;;;-1.90;99.90;;;;;;5046199;28;20513;-68
2022/03/08 00:43:20;;;;;;;6.70;2.05;;;-1.80;99.90;;;;;;5039976;28;20085;-68
2022/03/08 00:45:45;;;;;;;2.15;1.17;;;-1.70;99.90;;;;;;5046051;28;20056;-68
2022/03/08 00:48:11;;;;;;;3.05;1.77;;;-1.50;99.90;;;;;;5046619;28;20040;-68
2022/03/08 00:50:38;;;;;;;3.13;1.75;;;-1.50;99.90;;;;;;5048970;28;20756;-68
2022/03/08 00:53:04;;;;;;;1.67;1.17;;;-1.60;99.90;;;;;;5047000;28;20022;-68
2022/03/08 00:55:30;;;;;;;4.95;1.67;;;-1.70;99.90;;;;;;5032183;28;20481;-68
2022/03/08 00:57:57;;;;;;;2.40;1.17;;;-1.70;99.90;;;;;;5039017;28;20029;-68
2022/03/08 01:00:25;;;;;;;2.58;1.38;;;-1.50;99.90;;;;;;5044603;28;20025;-68
2022/03/08 01:02:52;;;;;;;3.35;1.40;;;-1.30;99.90;;;;;;5043039;28;20512;-68
2022/03/08 01:05:17;;;;;;;3.70;1.80;;;-1.10;99.90;;;;;;5044875;28;20485;-68
2022/03/08 01:07:44;;;;;;;2.55;1.40;;;-1.00;99.90;;;;;;5043363;28;20028;-68
2022/03/08 01:10:15;;;;;;;3.10;1.30;;;-1.10;99.90;;;;;;5046216;28;20036;-68
2022/03/08 01:12:42;;;;;;;15.52;1.60;;;-1.10;99.90;;;;;;5044616;28;20111;-68
2022/03/08 01:15:09;;;;;;;9.60;1.55;;;-1.30;99.90;;;;;;5044250;28;20026;-68
2022/03/08 01:17:36;;;;;;;5.07;2.42;;;-1.40;99.90;;;;;;5043469;28;20025;-68
2022/03/08 01:20:04;;;;;;;8.65;2.20;;;-1.40;99.90;;;;;;5040520;28;20017;-68
2022/03/08 01:22:30;;;;;;;2.22;1.35;;;-1.50;99.90;;;;;;5044750;28;20025;-68
2022/03/08 01:24:55;;;;;;;8.88;2.40;;;-1.60;99.90;;;;;;5045762;28;20033;-67
2022/03/08 01:27:21;;;;;;;1.83;1.23;;;-1.80;99.90;;;;;;5042213;28;20130;-68
2022/03/08 01:29:47;;;;;;;2.47;1.77;;;-1.70;99.90;;;;;;5036827;28;20090;-68
2022/03/08 01:32:12;;;;;;;5.40;2.40;;;-1.70;99.90;;;;;;5041999;28;20033;-68
2022/03/08 01:34:38;;;;;;;3.20;2.13;;;-1.60;99.90;;;;;;5038699;28;20026;-68
2022/03/08 01:37:04;;;;;;;3.15;1.23;;;-1.60;99.90;;;;;;5041597;28;20028;-68
2022/03/08 01:39:30;;;;;;;3.97;2.08;;;-1.60;99.90;;;;;;5039042;28;20397;-68
2022/03/08 01:41:55;;;;;;;4.85;1.95;;;-1.80;99.90;;;;;;5045196;28;20029;-68
2022/03/08 01:44:22;;;;;;;4.18;1.70;;;-1.70;99.90;;;;;;5046372;28;20036;-68
2022/03/08 01:46:48;;;;;;;5.68;2.30;;;-1.70;99.90;;;;;;5045553;28;20028;-68
2022/03/08 01:49:13;;;;;;;3.20;1.85;;;-1.80;99.90;;;;;;5041954;28;20029;-68
2022/03/08 01:51:42;;;;;;;4.00;1.77;;;-1.80;99.90;;;;;;5037638;28;20025;-68
2022/03/08 01:54:08;;;;;;;4.05;2.17;;;-1.80;99.90;;;;;;5043679;28;20025;-68
2022/03/08 01:56:37;;;;;;;3.13;1.50;;;-1.90;99.90;;;;;;5044327;28;20037;-68
2022/03/08 01:59:03;;;;;;;2.65;1.20;;;-2.00;99.90;;;;;;5041665;28;20039;-68
2022/03/08 02:01:29;;;;;;;9.00;1.70;;;-2.10;99.90;;;;;;5043654;28;20031;-68
2022/03/08 02:03:54;;;;;;;3.67;2.35;;;-2.20;99.90;;;;;;5040828;28;20029;-68
2022/03/08 02:06:20;;;;;;;4.45;1.75;;;-2.30;99.90;;;;;;5037368;28;20026;-68
2022/03/08 02:08:46;;;;;;;5.53;1.75;;;-2.20;99.90;;;;;;5043418;28;20083;-67
2022/03/08 02:11:13;;;;;;;4.80;1.95;;;-2.20;99.90;;;;;;5040249;28;20033;-67
2022/03/08 02:13:39;;;;;;;4.78;2.17;;;-2.30;99.90;;;;;;5033858;28;20517;-68
2022/03/08 02:16:05;;;;;;;4.20;1.92;;;-2.30;99.90;;;;;;5042737;28;20033;-68
2022/03/08 02:18:36;;;;;;;9.70;2.17;;;-2.20;99.90;;;;;;5039704;28;20028;-68
2022/03/08 02:21:06;;;;;;;3.13;1.65;;;-2.20;99.90;;;;;;5040592;28;20087;-68
2022/03/08 02:23:32;;;;;;;2.35;1.33;;;-2.30;99.90;;;;;;5036031;28;20036;-68
2022/03/08 02:25:58;;;;;;;5.18;1.85;;;-2.40;99.90;;;;;;5036453;28;20032;-68
2022/03/08 02:28:23;;;;;;;3.85;1.52;;;-2.40;99.90;;;;;;5041003;28;20078;-68
2022/03/08 02:30:49;;;;;;;6.15;2.92;;;-2.50;99.90;;;;;;5041581;28;20057;-68
2022/03/08 02:33:14;;;;;;;3.83;1.90;;;-2.50;99.90;;;;;;5039535;28;20031;-68
2022/03/08 02:35:40;;;;;;;6.53;2.08;;;-2.50;99.90;;;;;;5049247;28;20469;-68
2022/03/08 02:38:07;;;;;;;4.57;2.38;;;-2.50;99.90;;;;;;5040730;28;20076;-67
2022/03/08 02:40:39;;;;;;;4.25;2.22;;;-2.60;99.90;;;;;;5042668;28;20045;-67
2022/03/08 02:43:06;;;;;;;4.40;1.92;;;-2.60;99.90;;;;;;5035934;28;20021;-67
2022/03/08 02:45:32;;;;;;;4.13;2.10;;;-2.50;99.90;;;;;;5039797;28;20035;-68
2022/03/08 02:47:59;;;;;;;4.22;1.95;;;-2.60;99.90;;;;;;5035498;28;20616;-68
2022/03/08 02:50:24;;;;;;;2.20;1.42;;;-2.50;99.90;;;;;;5035831;28;20501;-68
2022/03/08 02:52:54;;;;;;;3.33;1.67;;;-2.50;99.90;;;;;;5038716;28;20067;-68
2022/03/08 02:55:21;;;;;;;5.00;2.13;;;-2.60;99.90;;;;;;5038761;28;20242;-68
2022/03/08 02:57:48;;;;;;;5.15;2.28;;;-2.70;99.90;;;;;;5035625;28;20048;-67
2022/03/08 03:00:15;;;;;;;3.25;1.80;;;-2.70;99.90;;;;;;5041090;28;20059;-67
2022/03/08 03:02:41;;;;;;;1.83;1.25;;;-2.60;99.90;;;;;;5040301;28;20367;-67
2022/03/08 03:05:08;;;;;;;5.50;2.08;;;-2.50;99.90;;;;;;5039503;28;20028;-67
2022/03/08 03:07:34;;;;;;;2.90;1.73;;;-2.50;99.90;;;;;;5047133;28;20017;-67
2022/03/08 03:10:00;;;;;;;9.52;2.67;;;-2.70;99.90;;;;;;5038222;28;20073;-68
2022/03/08 03:12:26;;;;;;;3.25;1.70;;;-2.80;99.90;;;;;;5039755;28;20684;-68
2022/03/08 03:14:51;;;;;;;9.60;2.35;;;-2.90;99.90;;;;;;5044739;28;20125;-68
2022/03/08 03:17:17;;;;;;;3.13;1.67;;;-2.90;99.90;;;;;;5048246;28;20389;-67
2022/03/08 03:19:43;;;;;;;2.25;1.52;;;-3.00;99.90;;;;;;5037499;28;20491;-68
2022/03/08 03:22:09;;;;;;;5.03;2.05;;;-3.00;99.90;;;;;;5038076;28;20477;-67
2022/03/08 03:24:35;;;;;;;3.03;1.90;;;-3.00;99.90;;;;;;5039499;28;20032;-68
2022/03/08 03:27:01;;;;;;;5.95;1.77;;;-3.00;99.90;;;;;;5035144;28;20489;-68
2022/03/08 03:29:26;;;;;;;4.85;2.10;;;-3.00;99.90;;;;;;5037250;28;20037;-68
2022/03/08 03:31:52;;;;;;;3.67;2.00;;;-3.10;99.90;;;;;;5039767;28;20028;-68
2022/03/08 03:34:17;;;;;;;4.07;2.10;;;-3.00;99.90;;;;;;5034374;28;20493;-68
2022/03/08 03:36:43;;;;;;;3.13;1.65;;;-3.00;99.90;;;;;;5041157;28;20029;-68
2022/03/08 03:39:09;;;;;;;7.78;2.38;;;-3.00;99.90;;;;;;5044854;28;20060;-67
2022/03/08 03:41:35;;;;;;;4.03;2.05;;;-3.10;99.90;;;;;;5039103;28;20089;-67
2022/03/08 03:44:00;;;;;;;3.85;1.88;;;-3.10;99.90;;;;;;5048539;28;20035;-68
2022/03/08 03:46:26;;;;;;;5.03;2.53;;;-3.10;99.90;;;;;;5047420;28;20029;-67
2022/03/08 03:48:52;;;;;;;3.67;1.83;;;-3.10;99.90;;;;;;5042843;28;20026;-68
2022/03/08 03:51:17;;;;;;;4.18;1.88;;;-3.10;99.90;;;;;;5039847;28;20026;-67
2022/03/08 03:53:44;;;;;;;5.47;2.42;;;-3.20;99.90;;;;;;5037529;28;20112;-68
2022/03/08 03:56:10;;;;;;;8.85;2.25;;;-3.20;99.90;;;;;;5040460;28;20033;-67
2022/03/08 03:58:35;;;;;;;3.10;1.77;;;-3.20;99.90;;;;;;5040109;28;20078;-67
2022/03/08 04:01:01;;;;;;;5.65;1.98;;;-3.10;99.90;;;;;;5039782;28;20038;-67
2022/03/08 04:03:27;;;;;;;3.05;1.50;;;-3.10;99.90;;;;;;5042802;28;20094;-67
2022/03/08 04:05:53;;;;;;;3.50;1.90;;;-2.80;99.90;;;;;;5046823;28;20057;-67
2022/03/08 04:08:20;;;;;;;1.83;1.35;;;-2.80;99.90;;;;;;5043415;28;20116;-67
2022/03/08 04:10:49;;;;;;;3.85;1.67;;;-2.80;99.90;;;;;;5035608;28;20607;-67
2022/03/08 04:13:15;;;;;;;7.57;1.65;;;-2.80;99.90;;;;;;5038987;28;20032;-68
2022/03/08 04:15:42;;;;;;;5.53;2.63;;;-2.80;99.90;;;;;;5042209;28;20034;-67
2022/03/08 04:18:08;;;;;;;4.43;2.50;;;-2.90;99.90;;;;;;5039523;28;20033;-67
2022/03/08 04:20:34;;;;;;;2.35;1.30;;;-2.80;99.90;;;;;;5034624;28;20033;-68
2022/03/08 04:23:00;;;;;;;4.18;2.20;;;-2.80;99.90;;;;;;5030395;28;20037;-67
2022/03/08 04:25:26;;;;;;;9.35;1.88;;;-2.90;99.90;;;;;;5036717;28;20040;-68
2022/03/08 04:27:52;;;;;;;3.00;1.67;;;-3.10;99.90;;;;;;5035033;28;20036;-67
2022/03/08 04:30:18;;;;;;;6.47;1.88;;;-3.20;99.90;;;;;;5038202;28;20049;-67
2022/03/08 04:32:43;;;;;;;3.42;2.42;;;-3.20;99.90;;;;;;5037358;28;20469;-69
2022/03/08 04:35:09;;;;;;;7.65;2.00;;;-3.10;99.90;;;;;;5044940;28;20028;-67
2022/03/08 04:37:35;;;;;;;1.60;1.10;;;-3.20;99.90;;;;;;5044517;28;20693;-67
2022/03/08 04:40:03;;;;;;;6.20;1.65;;;-3.10;99.90;;;;;;5041675;28;20033;-67
2022/03/08 04:42:29;;;;;;;4.57;2.30;;;-2.90;99.90;;;;;;5044886;28;20112;-67
2022/03/08 04:44:54;;;;;;;3.88;2.08;;;-2.80;99.90;;;;;;5039914;28;20136;-67
2022/03/08 04:47:20;;;;;;;4.03;2.25;;;-3.00;99.90;;;;;;5045582;28;20044;-67
2022/03/08 04:49:46;;;;;;;2.33;1.52;;;-3.00;99.90;;;;;;5041640;28;20533;-67
2022/03/08 04:52:11;;;;;;;3.45;1.38;;;-2.80;99.90;;;;;;5049226;28;20472;-67
2022/03/08 04:54:37;;;;;;;6.97;1.83;;;-2.80;99.90;;;;;;5043552;28;20611;-67
2022/03/08 04:57:04;;;;;;;4.88;2.22;;;-3.00;99.90;;;;;;5045478;28;20039;-67
2022/03/08 04:59:29;;;;;;;8.10;2.38;;;-3.00;99.90;;;;;;5040898;28;20122;-67
2022/03/08 05:01:55;;;;;;;3.38;2.15;;;-3.10;99.90;;;;;;5043461;28;20037;-67
2022/03/08 05:04:21;;;;;;;4.57;2.28;;;-3.00;99.90;;;;;;5042185;28;20033;-67
2022/03/08 05:06:47;;;;;;;3.75;1.83;;;-3.10;99.90;;;;;;5039029;28;20047;-68
2022/03/08 05:09:13;;;;;;;4.45;2.20;;;-3.00;99.90;;;;;;5044466;28;20374;-67
2022/03/08 05:11:38;;;;;;;4.35;2.20;;;-3.00;99.90;;;;;;5044516;28;20033;-68
2022/03/08 05:14:05;;;;;;;10.80;2.30;;;-3.10;99.90;;;;;;5042521;28;20021;-68
2022/03/08 05:16:31;;;;;;;2.63;1.58;;;-3.20;99.90;;;;;;5041247;28;20025;-69
2022/03/08 05:18:57;;;;;;;4.38;1.92;;;-3.10;99.90;;;;;;5043008;28;20507;-67
2022/03/08 05:21:23;;;;;;;1.50;1.15;;;-2.90;99.90;;;;;;5041421;28;20264;-67
2022/03/08 05:23:49;;;;;;;3.25;1.98;;;-2.70;99.90;;;;;;5036765;28;20060;-68
2022/03/08 05:26:15;;;;;;;4.53;1.73;;;-2.70;99.90;;;;;;5035622;28;20071;-68
2022/03/08 05:28:42;;;;;;;3.60;2.28;;;-2.60;99.90;;;;;;5035246;28;20029;-68
2022/03/08 05:31:11;;;;;;;7.25;1.08;;;-2.70;99.90;;;;;;5038272;28;20615;-68
2022/03/08 05:33:37;;;;;;;2.65;1.40;;;-2.70;99.90;;;;;;5041036;28;20061;-68
2022/03/08 05:36:03;;;;;;;6.68;1.95;;;-2.90;99.90;;;;;;5038050;28;20468;-68
2022/03/08 05:38:29;;;;;;;5.57;2.20;;;-3.00;99.90;;;;;;5034476;28;20069;-69
2022/03/08 05:40:55;;;;;;;2.80;1.67;;;-3.10;99.90;;;;;;5038706;28;20039;-68
2022/03/08 05:43:21;;;;;;;3.47;1.88;;;-3.10;99.90;;;;;;5037628;28;20032;-68
2022/03/08 05:45:47;;;;;;;3.65;1.80;;;-3.20;99.90;;;;;;5042003;28;20033;-68
2022/03/08 05:48:12;;;;;;;3.95;2.17;;;-3.30;99.90;;;;;;5035769;28;20530;-68
2022/03/08 05:50:38;;;;;;;6.22;2.92;;;-3.20;99.90;;;;;;5043727;28;20071;-68
2022/03/08 05:53:04;;;;;;;2.78;1.70;;;-3.10;99.90;;;;;;5041904;28;20438;-66
2022/03/08 05:55:30;;;;;;;1.75;1.20;;;-3.10;99.90;;;;;;5039606;28;20074;-66
2022/03/08 05:57:55;;;;;;;2.15;1.52;;;-3.20;99.90;;;;;;5036245;28;20485;-66
2022/03/08 06:00:21;;;;;;;5.32;1.73;;;-3.20;99.90;;;;;;5041446;28;20057;-66
2022/03/08 06:02:46;;;;;;;6.65;2.33;;;-3.20;99.90;;;;;;5042836;28;20485;-66
2022/03/08 06:05:12;;;;;;;6.68;3.33;;;-3.30;99.90;;;;;;5038421;28;20088;-66
2022/03/08 06:07:38;;;;;;;3.40;1.92;;;-3.30;99.90;;;;;;5037794;28;20020;-66
2022/03/08 06:10:07;;;;;;;5.07;2.05;;;-3.20;99.90;;;;;;5036924;28;20432;-66
2022/03/08 06:12:33;;;;;;;4.75;1.90;;;-3.30;99.90;;;;;;5045394;28;20048;-66
2022/03/08 06:14:58;;;;;;;6.88;1.73;;;-3.20;99.90;;;;;;5037977;28;20378;-66
2022/03/08 06:17:24;;;;;;;3.70;2.08;;;-3.20;99.90;;;;;;5037468;28;20108;-66
2022/03/08 06:19:50;;;;;;;4.03;1.52;;;-3.10;99.90;;;;;;5039657;28;20041;-66
2022/03/08 06:22:15;;;;;;;23.80;2.75;;;-3.10;99.90;;;;;;5039453;28;20025;-66
2022/03/08 06:24:41;;;;;;;3.42;2.05;;;-3.20;99.90;;;;;;5037227;28;20033;-66
2022/03/08 06:27:07;;;;;;;12.90;2.17;;;-3.10;99.90;;;;;;5043648;28;20526;-66
2022/03/08 06:29:32;;;;;;;6.00;2.13;;;-3.10;99.90;;;;;;5038912;28;20045;-67
2022/03/08 06:31:58;;;;;;;5.03;1.63;;;-3.20;99.90;;;;;;5033439;28;20032;-66
2022/03/08 06:34:24;;;;;;;5.45;2.50;;;-3.10;99.90;;;;;;5039338;28;20021;-66
2022/03/08 06:36:49;;;;;;;14.65;2.75;;;-3.10;99.90;;;;;;5037303;28;20044;-66
2022/03/08 06:39:15;;;;;;;7.13;2.60;;;-2.80;99.90;;;;;;5033891;28;20048;-66
2022/03/08 06:41:41;;;;;;;5.07;2.03;;;-2.60;99.90;;;;;;5038330;28;20045;-66
2022/03/08 06:44:06;;;;;;;4.05;2.53;;;-2.50;99.90;;;;;;5037372;28;20731;-67
2022/03/08 06:46:32;;;;;;;6.85;2.08;;;-2.40;99.90;;;;;;5043410;28;20025;-67
2022/03/08 06:48:58;;;;;;;5.30;2.20;;;-2.40;99.90;;;;;;5043146;28;20509;-66
2022/03/08 06:51:24;;;;;;;4.55;1.85;;;-2.40;99.90;;;;;;5034338;28;20014;-66
2022/03/08 06:53:50;;;;;;;5.60;2.72;;;-2.30;99.90;;;;;;5041734;28;20485;-66
2022/03/08 06:56:16;;;;;;;3.75;2.17;;;-2.20;99.90;;;;;;5043716;28;20083;-66
2022/03/08 06:58:41;;;;;;;8.85;2.47;;;-2.10;99.90;;;;;;5033558;28;20074;-66
2022/03/08 07:01:07;;;;;;;5.53;2.83;;;-2.00;99.90;;;;;;5036364;28;20033;-67
2022/03/08 07:03:32;;;;;;;5.55;2.83;;;-1.90;99.90;;;;;;5040920;28;20048;-67
2022/03/08 07:05:58;;;;;;;3.70;1.80;;;-1.80;99.90;;;;;;5035870;28;20155;-65
2022/03/08 07:08:24;;;;;;;2.38;1.52;;;-1.50;99.90;;;;;;5040317;28;20040;-66
2022/03/08 07:10:50;;;;;;;8.68;2.63;;;-1.40;99.90;;;;;;5041431;28;20052;-66
2022/03/08 07:13:16;;;;;;;6.28;2.40;;;-1.20;99.90;;;;;;5041658;28;20401;-66
2022/03/08 07:15:41;;;;;;;8.10;2.25;;;-0.90;99.90;;;;;;5036945;28;20022;-66
2022/03/08 07:18:08;;;;;;;5.68;2.67;;;-0.80;99.90;;;;;;5031935;28;20083;-66
2022/03/08 07:20:34;;;;;;;7.13;2.80;;;-0.60;99.90;;;;;;5040194;28;20382;-66
2022/03/08 07:22:59;;;;;;;6.32;2.75;;;-0.40;99.90;;;;;;5036074;28;20048;-66
2022/03/08 07:25:25;;;;;;;7.63;2.50;;;-0.20;99.90;;;;;;5039376;28;20052;-66
2022/03/08 07:27:51;;;;;;;18.02;1.98;;;-0.10;99.90;;;;;;5036463;28;20417;-66
2022/03/08 07:30:16;;;;;;;5.80;3.45;;;-0.10;99.90;;;;;;5039380;28;20128;-66
2022/03/08 07:32:42;;;;;;;5.03;2.22;;;0.10;99.90;;;;;;5031465;28;20038;-66
2022/03/08 07:35:08;;;;;;;5.10;2.40;;;0.30;99.90;;;;;;5043747;28;20028;-66
2022/03/08 07:37:38;;;;;;;7.30;3.15;;;0.40;99.90;;;;;;5035186;28;20221;-66
2022/03/08 07:40:06;;;;;;;7.38;2.25;;;0.60;99.90;;;;;;5035825;28;20402;-66
2022/03/08 07:42:31;;;;;;;3.80;1.83;;;0.80;99.90;;;;;;5034632;28;20076;-66
2022/03/08 07:44:58;;;;;;;4.70;2.03;;;1.00;99.90;;;;;;5034681;28;20049;-66
2022/03/08 07:47:24;;;;;;;7.20;2.92;;;1.10;99.90;;;;;;5035665;28;20028;-66
2022/03/08 07:49:49;;;;;;;5.53;1.98;;;1.30;99.90;;;;;;5038683;28;20025;-66
2022/03/08 07:52:15;;;;;;;5.90;2.80;;;1.40;99.90;;;;;;5037436;28;20036;-66
2022/03/08 07:54:41;;;;;;;5.90;2.75;;;1.60;99.90;;;;;;5036627;28;20029;-66
2022/03/08 07:57:06;;;;;;;5.75;2.83;;;1.70;99.90;;;;;;5030159;28;20025;-66
2022/03/08 07:59:32;;;;;;;5.50;2.45;;;1.80;99.90;;;;;;5033364;28;20028;-66
2022/03/08 08:01:58;;;;;;;9.82;3.05;;;2.00;99.90;;;;;;5040695;28;20028;-66
2022/03/08 08:04:23;;;;;;;8.55;2.83;;;2.10;99.90;;;;;;5042762;28;20071;-66
2022/03/08 08:06:50;;;;;;;8.20;2.42;;;2.50;99.90;;;;;;5033774;28;20037;-66
2022/03/08 08:09:16;;;;;;;9.43;2.47;;;2.70;99.90;;;;;;5037068;28;20022;-66
2022/03/08 08:11:41;;;;;;;7.40;2.35;;;2.80;99.90;;;;;;5030948;28;20037;-67
2022/03/08 08:14:07;;;;;;;5.60;2.83;;;2.90;99.90;;;;;;5040647;28;20040;-65
2022/03/08 08:16:33;;;;;;;4.05;2.22;;;3.00;99.90;;;;;;5046390;28;20520;-65
2022/03/08 08:18:58;;;;;;;9.18;3.17;;;3.10;99.90;;;;;;5041401;28;20098;-65
2022/03/08 08:21:24;;;;;;;4.20;2.30;;;3.30;99.90;;;;;;5044455;28;20033;-66
2022/03/08 08:23:50;;;;;;;14.98;2.88;;;3.40;99.90;;;;;;5038212;28;20036;-66
2022/03/08 08:26:16;;;;;;;3.35;1.95;;;3.40;99.90;;;;;;5039117;28;20025;-65
2022/03/08 08:28:42;;;;;;;3.70;2.03;;;3.60;99.90;;;;;;5034302;28;20040;-65
2022/03/08 08:31:08;;;;;;;6.50;3.13;;;3.80;99.90;;;;;;5039556;28;20033;-66
2022/03/08 08:33:34;;;;;;;6.80;2.58;;;3.90;99.90;;;;;;5043628;28;20025;-65
2022/03/08 08:36:00;;;;;;;5.43;2.70;;;4.00;99.90;;;;;;5039688;28;20044;-65
2022/03/08 08:38:26;;;;;;;8.02;3.83;;;4.10;99.90;;;;;;5045974;28;20033;-66
2022/03/08 08:40:51;;;;;;;7.78;3.13;;;4.30;99.90;;;;;;5050973;28;20041;-66
2022/03/08 08:43:17;;;;;;;5.70;2.53;;;4.80;99.90;;;;;;5041747;28;20071;-65
2022/03/08 08:45:43;;;;;;;5.88;2.53;;;5.40;99.90;;;;;;5049638;28;20377;-66
2022/03/08 08:48:09;;;;;;;8.63;2.83;;;6.00;99.90;;;;;;5041573;28;20401;-65
2022/03/08 08:50:35;;;;;;;6.35;2.85;;;6.70;99.90;;;;;;5045246;28;20032;-65
2022/03/08 08:53:02;;;;;;;5.70;2.47;;;6.90;99.90;;;;;;5047529;28;20025;-65
2022/03/08 08:55:28;;;;;;;13.13;3.60;;;7.60;99.70;;;;;;5043163;28;20029;-66
2022/03/08 08:57:53;;;;;;;6.80;2.20;;;8.10;98.60;;;;;;5037582;28;20033;-66
2022/03/08 09:00:19;;;;;;;8.10;2.92;;;8.80;97.00;;;;;;5039421;28;20110;-66
2022/03/08 09:02:45;;;;;;;7.00;2.50;;;9.40;95.20;;;;;;5045108;28;20064;-67
2022/03/08 09:05:12;;;;;;;8.10;3.20;;;9.70;94.90;;;;;;5040729;28;20425;-68
2022/03/08 09:07:38;;;;;;;8.13;2.35;;;9.50;94.20;;;;;;5046333;28;20485;-67
2022/03/08 09:10:06;;;;;;;9.38;2.92;;;9.90;93.40;;;;;;5045106;28;20060;-66
2022/03/08 09:12:32;;;;;;;6.38;2.55;;;10.10;92.80;;;;;;5048918;28;20025;-67
2022/03/08 09:14:58;;;;;;;8.60;3.17;;;10.30;92.80;;;;;;5037482;28;20028;-66
2022/03/08 09:17:23;;;;;;;8.98;3.10;;;10.80;91.50;;;;;;5039467;28;20028;-67
2022/03/08 09:19:49;;;;;;;8.43;2.58;;;10.80;91.10;;;;;;5043174;28;20537;-66
2022/03/08 09:22:15;;;;;;;10.63;2.63;;;10.50;91.10;;;;;;5042780;28;20127;-67
2022/03/08 09:24:40;;;;;;;8.93;3.10;;;10.60;90.80;;;;;;5041917;28;20051;-66
2022/03/08 09:27:07;;;;;;;4.53;1.73;;;10.20;90.10;;;;;;5041595;28;20400;-67
2022/03/08 09:29:33;;;;;;;6.97;2.53;;;10.40;89.00;;;;;;5041932;28;20088;-66
2022/03/08 09:31:58;;;;;;;6.30;2.50;;;10.10;87.90;;;;;;5037417;28;20025;-67
2022/03/08 09:34:24;;;;;;;9.35;2.88;;;10.70;88.70;;;;;;5041895;28;20151;-67
2022/03/08 09:36:50;;;;;;;6.53;2.38;;;10.40;86.90;;;;;;5048570;28;20390;-66
2022/03/08 09:39:15;;;;;;;7.53;1.88;;;10.20;85.80;;;;;;5040213;28;20037;-66
2022/03/08 09:41:41;;;;;;;5.95;2.42;;;10.30;86.70;;;;;;5039118;28;20033;-67
2022/03/08 09:44:14;;;;;;;5.50;2.22;;;10.40;85.90;;;;;;5034476;28;20143;-67
2022/03/08 09:46:40;;;;;;;6.05;2.25;;;10.30;85.90;;;;;;5040585;28;20029;-67
2022/03/08 09:49:06;;;;;;;6.05;2.20;;;10.20;85.70;;;;;;5040043;28;20123;-67
2022/03/08 09:51:32;;;;;;;8.85;2.38;;;10.90;85.20;;;;;;5033160;28;20144;-67
2022/03/08 09:53:57;;;;;;;4.88;2.00;;;10.50;84.50;;;;;;5046206;28;20029;-67
2022/03/08 09:56:24;;;;;;;6.03;2.28;;;10.70;84.00;;;;;;5042258;28;20100;-67
2022/03/08 09:58:50;;;;;;;4.90;2.10;;;11.10;84.90;;;;;;5034871;28;20056;-69
2022/03/08 10:01:16;;;;;;;7.75;2.35;;;10.90;81.70;;;;;;5047918;28;20028;-67
2022/03/08 10:03:44;;;;;;;7.28;2.67;;;10.50;82.50;;;;;;5040200;28;20051;-67
2022/03/08 10:06:11;;;;;;;7.15;2.03;;;10.90;82.40;;;;;;5046415;28;20033;-67
2022/03/08 10:08:37;;;;;;;6.55;2.20;;;10.70;80.90;;;;;;5037352;28;20109;-67
2022/03/08 10:11:06;;;;;;;7.75;2.78;;;10.90;81.70;;;;;;5037242;28;20051;-67
2022/03/08 10:13:38;;;;;;;19.13;3.50;;;11.50;80.40;;;;;;5038726;28;20112;-67
2022/03/08 10:16:04;;;;;;;8.57;2.80;;;11.70;80.70;;;;;;5039278;28;20410;-64
2022/03/08 10:18:40;;;;;;;3.67;1.58;;;12.40;80.20;;;;;;5032002;28;20048;-64
2022/03/08 10:21:32;;;;;;;16.10;2.72;;;12.10;78.10;;;;;;5045641;28;20087;-65
2022/03/08 10:24:04;;;;;;;6.82;2.75;;;12.40;78.50;;;;;;5037969;28;20033;-65
2022/03/08 10:26:32;;;;;;;6.25;1.85;;;12.50;76.20;;;;;;5043771;28;20125;-65
2022/03/08 10:28:59;;;;;;;7.85;2.30;;;12.60;76.60;;;;;;5035922;28;20108;-66
2022/03/08 10:31:25;;;;;;;5.97;2.03;;;12.30;74.80;;;;;;5035788;28;20029;-65
2022/03/08 10:33:51;;;;;;;8.15;2.08;;;12.30;75.00;;;;;;5038735;28;20043;-66
2022/03/08 10:36:25;;;;;;;10.30;2.42;;;12.20;77.00;;;;;;5043239;28;20041;-67
2022/03/08 10:39:15;;;;;;;8.10;2.17;;;12.80;74.80;;;;;;5032435;28;20128;-64
2022/03/08 10:42:01;;;;;;;4.78;1.70;;;13.40;74.50;;;;;;5050123;28;20521;-64
2022/03/08 10:44:41;;;;;;;5.63;1.73;;;14.30;72.40;;;;;;5040627;28;20064;-64
2022/03/08 10:47:10;;;;;;;7.32;2.13;;;14.10;70.20;;;;;;5041473;28;20126;-64
2022/03/08 10:49:51;;;;;;;8.02;2.03;;;14.10;71.60;;;;;;5041413;28;20025;-65
2022/03/08 10:52:17;;;;;;;7.43;2.13;;;13.70;71.90;;;;;;5033569;28;20139;-64
2022/03/08 10:54:43;;;;;;;5.00;1.75;;;14.00;70.50;;;;;;5031277;28;20472;-66
2022/03/08 10:57:09;;;;;;;9.40;2.33;;;14.10;69.90;;;;;;5025703;28;20076;-64
2022/03/08 10:59:35;;;;;;;5.90;1.73;;;13.70;68.60;;;;;;5030346;28;20086;-65
2022/03/08 11:02:23;;;;;;;7.88;1.80;;;13.90;70.10;;;;;;5038087;28;20136;-64
2022/03/08 11:05:08;;;;;;;6.30;1.63;;;14.00;70.70;;;;;;5037150;28;20033;-64
2022/03/08 11:07:36;;;;;;;7.88;2.03;;;15.50;67.40;;;;;;5037379;28;20119;-64
2022/03/08 11:10:07;;;;;;;7.25;2.00;;;14.60;66.20;;;;;;5039097;28;20551;-64
2022/03/08 11:12:33;;;;;;;6.53;1.80;;;15.00;67.30;;;;;;5039841;28;20119;-64
2022/03/08 11:14:59;;;;;;;8.30;2.33;;;15.80;65.10;;;;;;5032693;28;20037;-64
2022/03/08 11:17:25;;;;;;;6.13;1.90;;;15.80;64.10;;;;;;5029950;28;20457;-64
2022/03/08 11:19:51;;;;;;;8.38;2.10;;;15.60;64.70;;;;;;5044732;28;20032;-64
2022/03/08 11:22:20;;;;;;;7.68;2.35;;;16.00;64.60;;;;;;5035786;28;20029;-64
2022/03/08 11:24:46;;;;;;;5.60;1.77;;;14.80;64.50;;;;;;5041773;28;20059;-64
2022/03/08 11:27:15;;;;;;;5.13;1.67;;;15.20;62.90;;;;;;5032987;28;20037;-64
2022/03/08 11:29:41;;;;;;;7.05;2.45;;;16.00;63.00;;;;;;5029062;28;20129;-64
2022/03/08 11:32:14;;;;;;;5.65;1.60;;;16.00;62.60;;;;;;5036198;28;20033;-64
2022/03/08 11:34:50;;;;;;;6.20;1.70;;;16.20;63.10;;;;;;5029977;28;20029;-64
2022/03/08 11:37:23;;;;;;;6.30;2.10;;;17.00;62.30;;;;;;5031245;28;20033;-64
2022/03/08 11:40:10;;;;;;;5.80;1.92;;;16.60;63.70;;;;;;5023673;28;20083;-64
2022/03/08 11:42:41;;;;;;;7.95;1.98;;;17.40;62.80;;;;;;5025035;28;20029;-64
2022/03/08 11:45:11;;;;;;;4.55;1.42;;;17.30;60.20;;;;;;5025634;28;20883;-64
2022/03/08 11:47:44;;;;;;;4.82;1.77;;;17.20;58.10;;;;;;5035023;28;20582;-64
2022/03/08 11:50:28;;;;;;;8.10;2.15;;;17.50;59.50;;;;;;5038570;28;20033;-64
2022/03/08 11:53:09;;;;;;;6.90;2.10;;;17.00;58.90;;;;;;5036558;28;20052;-64
2022/03/08 11:55:39;;;;;;;4.55;1.60;;;17.30;59.20;;;;;;5028838;28;20033;-65
2022/03/08 11:58:06;;;;;;;4.95;1.65;;;16.30;59.10;;;;;;5023358;28;20088;-66
2022/03/08 12:00:34;;;;;;;5.85;1.80;;;17.00;59.50;;;;;;5023450;28;20025;-65
2022/03/08 12:03:04;;;;;;;7.90;1.83;;;17.60;57.30;;;;;;5035920;28;20447;-65
2022/03/08 12:05:38;;;;;;;;;;;17.30;56.80;;;;;;5040808;28;20047;-65
2022/03/08 12:08:30;;;;;;;4.47;1.50;;;16.40;57.80;;;;;;5034675;28;19912;-65
2022/03/08 12:10:58;;;;;;;5.78;1.98;;;16.70;56.40;;;;;;5030115;28;20506;-65
2022/03/08 12:13:46;;;;;;;5.97;1.45;;;16.60;56.80;;;;;;5041874;28;20029;-65
2022/03/08 12:16:22;;;;;;;5.05;1.65;;;17.90;56.70;;;;;;5038704;28;20021;-65
2022/03/08 12:18:48;;;;;;;6.25;1.52;;;17.70;54.20;;;;;;5035009;28;20497;-65
2022/03/08 12:21:17;;;;;;;6.00;1.65;;;17.80;56.70;;;;;;5039438;28;20120;-65
2022/03/08 12:24:02;;;;;;;6.45;1.88;;;17.10;55.10;;;;;;5033638;28;20422;-65
2022/03/08 12:26:29;;;;;;;5.20;1.75;;;17.90;55.70;;;;;;5026369;28;20441;-67
2022/03/08 12:29:22;;;;;;;4.07;1.40;;;18.70;55.20;;;;;;5034247;28;20496;-64
2022/03/08 12:31:57;;;;;;;7.07;1.80;;;18.70;54.60;;;;;;5033856;28;20043;-65
2022/03/08 12:34:42;;;;;;;4.47;1.50;;;18.00;53.60;;;;;;5030278;28;20021;-65
2022/03/08 12:37:13;;;;;;;8.13;1.90;;;19.00;52.60;;;;;;5035369;28;20097;-64
2022/03/08 12:39:49;;;;;;;7.65;2.58;;;17.80;52.70;;;;;;5036034;28;20037;-64
2022/03/08 12:42:20;;;;;;;5.90;1.80;;;17.70;51.90;;;;;;5035779;28;20132;-64
2022/03/08 12:44:54;;;;;;;4.63;1.65;;;17.50;53.20;;;;;;5034426;28;20043;-65
2022/03/08 12:47:20;;;;;;;6.15;2.00;;;17.40;53.30;;;;;;5036413;28;20025;-67
2022/03/08 12:49:47;;;;;;;5.70;1.95;;;17.80;51.60;;;;;;5037627;28;20419;-64